Time;durP1;ratioP1;P1;durP2;ratioP2;P2;SDS_P1;SDS_P2;PMS_P1;PMS_P2;Temp;Humidity;BMP_temperature;BMP_pressure;BME280_temperature;BME280_humidity;BME280_pressure;Samples;Min_cycle;Max_cycle;Signal;HPM_P1;HPM_P2
2020/12/01 00:00:20;;;;;;;34.72;15.85;;;3.80;99.90;;;;;;5114970;28;20093;-78
2020/12/01 00:02:46;;;;;;;30.25;14.88;;;3.90;99.90;;;;;;5114540;28;20055;-78
2020/12/01 00:05:12;;;;;;;33.80;17.88;;;3.90;99.90;;;;;;5111994;28;20039;-79
2020/12/01 00:07:38;;;;;;;33.53;15.63;;;3.90;99.90;;;;;;5114186;28;20046;-78
2020/12/01 00:10:05;;;;;;;34.35;17.77;;;3.90;99.90;;;;;;5112859;28;20507;-78
2020/12/01 00:12:31;;;;;;;30.10;14.65;;;3.90;99.90;;;;;;5113499;28;20032;-78
2020/12/01 00:14:57;;;;;;;37.00;17.25;;;3.80;99.90;;;;;;5113391;28;20497;-78
2020/12/01 00:17:23;;;;;;;32.10;15.57;;;3.80;99.90;;;;;;5113452;28;20032;-79
2020/12/01 00:19:49;;;;;;;37.78;18.48;;;3.80;99.90;;;;;;5112458;28;20036;-79
2020/12/01 00:22:14;;;;;;;30.48;15.02;;;3.80;99.90;;;;;;5113040;28;20040;-79
2020/12/01 00:24:40;;;;;;;31.40;15.52;;;3.80;99.90;;;;;;5113500;28;20042;-78
2020/12/01 00:27:05;;;;;;;32.63;15.23;;;3.80;99.90;;;;;;5114527;28;20046;-78
2020/12/01 00:29:31;;;;;;;36.45;16.38;;;3.90;99.90;;;;;;5113762;28;20039;-78
2020/12/01 00:31:57;;;;;;;31.63;15.25;;;3.90;99.90;;;;;;5112800;28;20059;-78
2020/12/01 00:34:23;;;;;;;37.80;17.23;;;3.90;99.90;;;;;;5112829;28;20054;-79
2020/12/01 00:36:49;;;;;;;35.95;17.65;;;3.80;99.90;;;;;;5113035;28;20036;-78
2020/12/01 00:39:14;;;;;;;39.40;18.35;;;3.90;99.90;;;;;;5112149;28;20477;-78
2020/12/01 00:41:40;;;;;;;33.67;15.70;;;3.90;99.90;;;;;;5113138;28;20035;-78
2020/12/01 00:44:06;;;;;;;31.15;16.20;;;3.90;99.90;;;;;;5114138;28;20043;-79
2020/12/01 00:46:31;;;;;;;22.30;10.57;;;3.80;99.90;;;;;;5114354;28;20068;-78
2020/12/01 00:48:58;;;;;;;27.58;13.75;;;3.90;99.90;;;;;;5113311;28;20039;-78
2020/12/01 00:51:24;;;;;;;28.35;13.27;;;3.90;99.90;;;;;;5114058;28;20054;-78
2020/12/01 00:53:50;;;;;;;30.13;15.55;;;3.90;99.90;;;;;;5113014;28;20032;-78
2020/12/01 00:56:19;;;;;;;30.35;13.65;;;3.90;99.90;;;;;;5112932;28;20093;-78
2020/12/01 00:58:45;;;;;;;28.80;16.10;;;3.90;99.90;;;;;;5113369;28;20096;-78
2020/12/01 01:01:10;;;;;;;25.42;14.00;;;3.90;99.90;;;;;;5112447;28;20040;-78
2020/12/01 01:03:36;;;;;;;30.95;14.77;;;3.90;99.90;;;;;;5112230;28;20489;-78
2020/12/01 01:06:02;;;;;;;31.88;15.80;;;3.90;99.90;;;;;;5114023;28;20035;-78
2020/12/01 01:08:28;;;;;;;27.60;13.15;;;3.90;99.90;;;;;;5113709;28;20039;-78
2020/12/01 01:10:55;;;;;;;30.98;15.90;;;3.90;99.90;;;;;;5112155;28;20572;-78
2020/12/01 01:13:20;;;;;;;23.25;11.73;;;3.90;99.90;;;;;;5111022;28;20039;-78
2020/12/01 01:15:46;;;;;;;28.92;14.57;;;3.90;99.90;;;;;;5095901;28;20123;-78
2020/12/01 01:18:12;;;;;;;25.52;13.25;;;3.90;99.90;;;;;;5093507;28;20374;-78
2020/12/01 01:20:37;;;;;;;21.35;10.55;;;3.90;99.90;;;;;;5102265;28;20713;-78
2020/12/01 01:23:04;;;;;;;18.98;9.48;;;4.00;99.90;;;;;;5114081;28;20365;-78
2020/12/01 01:25:30;;;;;;;24.80;14.32;;;4.00;99.90;;;;;;5112697;28;20047;-78
2020/12/01 01:27:55;;;;;;;20.20;11.43;;;4.00;99.90;;;;;;5113880;28;20043;-78
2020/12/01 01:30:23;;;;;;;24.55;12.98;;;4.00;99.90;;;;;;5112120;28;20043;-78
2020/12/01 01:32:49;;;;;;;23.67;12.15;;;4.00;99.90;;;;;;5112414;28;20050;-78
2020/12/01 01:35:16;;;;;;;22.45;11.13;;;4.00;99.90;;;;;;5113809;28;20039;-78
2020/12/01 01:37:42;;;;;;;25.30;13.00;;;4.00;99.90;;;;;;5112582;28;20127;-78
2020/12/01 01:40:17;;;;;;;22.60;12.27;;;4.00;99.90;;;;;;5113457;28;20568;-78
2020/12/01 01:42:42;;;;;;;16.63;8.73;;;4.00;99.90;;;;;;5113964;28;20044;-78
2020/12/01 01:45:10;;;;;;;25.20;13.40;;;4.00;99.90;;;;;;5112505;28;20116;-78
2020/12/01 01:47:36;;;;;;;12.07;5.55;;;4.00;99.90;;;;;;5113638;28;20039;-78
2020/12/01 01:50:09;;;;;;;26.15;14.10;;;4.00;99.90;;;;;;5113206;28;20074;-78
2020/12/01 01:52:37;;;;;;;21.42;12.20;;;4.00;99.90;;;;;;5113911;28;20047;-79
2020/12/01 01:55:07;;;;;;;20.58;11.40;;;4.10;99.90;;;;;;5112522;28;20048;-78
2020/12/01 01:57:35;;;;;;;22.85;11.85;;;4.00;99.90;;;;;;5112497;28;20036;-78
2020/12/01 02:00:02;;;;;;;22.75;12.68;;;4.00;99.90;;;;;;5113230;28;20043;-78
2020/12/01 02:02:28;;;;;;;24.02;12.10;;;4.10;99.90;;;;;;5113770;28;20063;-78
2020/12/01 02:04:54;;;;;;;23.38;13.23;;;4.00;99.90;;;;;;5113607;28;20156;-78
2020/12/01 02:07:20;;;;;;;22.55;12.00;;;4.10;99.90;;;;;;5112480;28;20393;-78
2020/12/01 02:09:50;;;;;;;18.35;9.75;;;4.10;99.90;;;;;;5112580;28;20118;-78
2020/12/01 02:12:17;;;;;;;22.95;13.05;;;4.10;99.90;;;;;;5112489;28;20038;-78
2020/12/01 02:14:48;;;;;;;27.63;13.90;;;4.10;99.90;;;;;;5112374;28;20096;-78
2020/12/01 02:17:19;;;;;;;22.75;13.10;;;4.10;99.90;;;;;;5113678;28;20055;-78
2020/12/01 02:19:47;;;;;;;25.05;15.07;;;4.10;99.90;;;;;;5111693;28;20070;-78
2020/12/01 02:22:15;;;;;;;23.58;12.93;;;4.10;99.90;;;;;;5113610;28;20435;-78
2020/12/01 02:24:40;;;;;;;22.85;13.63;;;4.10;99.90;;;;;;5114538;28;20035;-78
2020/12/01 02:27:08;;;;;;;29.88;15.63;;;4.10;99.90;;;;;;5117409;28;20036;-78
2020/12/01 02:29:36;;;;;;;26.60;14.32;;;4.10;99.90;;;;;;5116738;28;20488;-78
2020/12/01 02:32:02;;;;;;;28.92;15.57;;;4.10;99.90;;;;;;5115795;28;20040;-78
2020/12/01 02:34:32;;;;;;;27.67;14.00;;;4.10;99.90;;;;;;5115442;28;20070;-79
2020/12/01 02:36:59;;;;;;;30.70;15.20;;;4.10;99.90;;;;;;5117359;27;20039;-79
2020/12/01 02:39:27;;;;;;;26.20;13.65;;;;;;;;;;5115304;28;20068;-79
2020/12/01 02:41:54;;;;;;;28.02;14.80;;;;;;;;;;5116870;28;20093;-79
2020/12/01 02:44:20;;;;;;;27.60;15.52;;;4.10;99.90;;;;;;5115544;28;20043;-79
2020/12/01 02:46:46;;;;;;;21.98;13.05;;;4.10;99.90;;;;;;5116723;28;20138;-78
2020/12/01 02:49:11;;;;;;;25.65;13.63;;;4.10;99.90;;;;;;5114937;28;20540;-79
2020/12/01 02:51:37;;;;;;;25.58;14.57;;;4.10;99.90;;;;;;5115275;28;20035;-79
2020/12/01 02:54:03;;;;;;;29.10;15.68;;;4.10;99.90;;;;;;5115204;28;20496;-79
2020/12/01 02:56:29;;;;;;;26.00;14.68;;;4.10;99.90;;;;;;5115395;28;20053;-79
2020/12/01 02:58:55;;;;;;;24.40;14.38;;;4.20;99.90;;;;;;5116280;28;20591;-79
2020/12/01 03:01:22;;;;;;;29.67;14.25;;;4.10;99.90;;;;;;5114990;28;20229;-79
2020/12/01 03:03:47;;;;;;;28.40;15.80;;;4.10;99.90;;;;;;5114844;28;20051;-79
2020/12/01 03:06:15;;;;;;;26.13;15.35;;;4.10;99.90;;;;;;5116496;28;20036;-79
2020/12/01 03:08:41;;;;;;;28.50;16.00;;;4.10;99.90;;;;;;5115845;28;20040;-79
2020/12/01 03:11:07;;;;;;;30.98;17.58;;;4.10;99.90;;;;;;5115552;28;20126;-79
2020/12/01 03:13:33;;;;;;;27.02;14.82;;;4.00;99.90;;;;;;5116327;28;20531;-79
2020/12/01 03:16:04;;;;;;;28.45;15.13;;;4.10;99.90;;;;;;5114919;28;20046;-79
2020/12/01 03:18:31;;;;;;;31.45;17.27;;;4.10;99.90;;;;;;5115049;28;20031;-79
2020/12/01 03:20:57;;;;;;;34.42;18.25;;;;;;;;;;5113838;28;20504;-79
2020/12/01 03:23:23;;;;;;;32.80;16.70;;;4.10;99.90;;;;;;5115870;28;20039;-79
2020/12/01 03:25:48;;;;;;;28.30;14.25;;;4.10;99.90;;;;;;5115910;28;20496;-78
2020/12/01 03:28:14;;;;;;;29.15;17.27;;;4.10;99.90;;;;;;5114943;28;20035;-79
2020/12/01 03:30:39;;;;;;;37.70;18.67;;;4.10;99.90;;;;;;5115335;28;20069;-79
2020/12/01 03:33:05;;;;;;;36.17;17.67;;;4.10;99.90;;;;;;5115839;28;20027;-79
2020/12/01 03:35:32;;;;;;;32.63;16.40;;;4.10;99.90;;;;;;5115070;28;20511;-79
2020/12/01 03:37:57;;;;;;;32.50;17.00;;;4.10;99.90;;;;;;5115813;28;20088;-78
2020/12/01 03:40:23;;;;;;;32.67;16.98;;;4.10;99.90;;;;;;5114137;28;20039;-78
2020/12/01 03:42:49;;;;;;;30.00;15.13;;;4.10;99.90;;;;;;5113772;28;20035;-78
2020/12/01 03:45:15;;;;;;;28.08;14.75;;;4.10;99.90;;;;;;5114295;28;20104;-78
2020/12/01 03:47:41;;;;;;;26.08;13.82;;;4.10;99.90;;;;;;5115288;28;20051;-78
2020/12/01 03:50:07;;;;;;;33.05;17.77;;;4.10;99.90;;;;;;5113621;28;20039;-79
2020/12/01 03:52:35;;;;;;;31.63;17.35;;;4.10;99.90;;;;;;5114163;28;20070;-78
2020/12/01 03:55:01;;;;;;;30.20;15.52;;;4.10;99.90;;;;;;5114150;28;20039;-78
2020/12/01 03:57:27;;;;;;;33.58;18.27;;;6.10;99.90;;;;;;5115552;28;20051;-79
2020/12/01 03:59:52;;;;;;;30.92;16.27;;;4.10;99.90;;;;;;5114895;28;20041;-78
2020/12/01 04:02:21;;;;;;;36.42;20.70;;;4.10;99.90;;;;;;5115333;28;20403;-79
2020/12/01 04:04:47;;;;;;;31.73;17.30;;;4.00;99.90;;;;;;5113788;28;20552;-79
2020/12/01 04:07:12;;;;;;;29.88;15.45;;;4.10;99.90;;;;;;5115264;28;20126;-79
2020/12/01 04:09:39;;;;;;;33.10;18.42;;;4.10;99.90;;;;;;5114790;28;20395;-79
2020/12/01 04:12:04;;;;;;;30.73;15.40;;;4.10;99.90;;;;;;5113755;28;20040;-79
2020/12/01 04:14:30;;;;;;;32.47;15.52;;;4.20;99.90;;;;;;5115143;28;20374;-79
2020/12/01 04:16:55;;;;;;;26.55;14.68;;;4.20;99.90;;;;;;5113818;28;20043;-79
2020/12/01 04:19:21;;;;;;;34.67;17.85;;;4.10;99.90;;;;;;5112803;28;20489;-79
2020/12/01 04:21:47;;;;;;;29.42;17.20;;;4.10;99.90;;;;;;5113668;28;20043;-79
2020/12/01 04:24:12;;;;;;;28.92;15.63;;;4.10;99.90;;;;;;5113502;28;20040;-79
2020/12/01 04:26:39;;;;;;;29.60;15.82;;;4.10;99.90;;;;;;5114810;28;20082;-79
2020/12/01 04:29:04;;;;;;;32.35;17.60;;;4.10;99.90;;;;;;5114455;28;20050;-79
2020/12/01 04:31:30;;;;;;;32.65;16.70;;;4.20;99.90;;;;;;5113424;28;20126;-79
2020/12/01 04:33:55;;;;;;;28.90;15.05;;;4.10;99.90;;;;;;5113513;28;20397;-78
2020/12/01 04:36:21;;;;;;;27.05;13.65;;;4.10;99.90;;;;;;5114230;28;20063;-79
2020/12/01 04:38:47;;;;;;;29.83;16.80;;;4.10;99.90;;;;;;5114040;28;20488;-79
2020/12/01 04:41:13;;;;;;;27.45;14.82;;;4.10;99.90;;;;;;5114462;28;20153;-79
2020/12/01 04:43:45;;;;;;;24.15;15.30;;;4.10;99.90;;;;;;5113165;28;20040;-79
2020/12/01 04:46:14;;;;;;;19.38;8.50;;;4.10;99.90;;;;;;5113160;28;20116;-80
2020/12/01 04:48:43;;;;;;;19.52;11.57;;;4.10;99.90;;;;;;5113538;28;20432;-78
2020/12/01 04:51:23;;;;;;;24.47;12.77;;;4.10;99.90;;;;;;5112893;28;20047;-78
2020/12/01 04:54:29;;;;;;;21.17;11.05;;;4.10;99.90;;;;;;5114283;28;20348;-78
2020/12/01 04:57:11;;;;;;;24.90;13.90;;;4.20;99.90;;;;;;5054873;28;20478;-78
2020/12/01 04:59:57;;;;;;;23.00;13.77;;;4.10;99.90;;;;;;5111193;28;20054;-79
2020/12/01 05:02:40;;;;;;;27.20;12.40;;;4.10;99.90;;;;;;5114082;28;20047;-78
2020/12/01 05:05:27;;;;;;;21.52;11.30;;;4.10;99.90;;;;;;5112808;28;20067;-78
2020/12/01 05:08:20;;;;;;;21.48;11.10;;;4.10;99.90;;;;;;5112696;28;20511;-79
2020/12/01 05:10:49;;;;;;;14.65;6.65;;;4.10;99.90;;;;;;5113786;28;20366;-79
2020/12/01 05:13:18;;;;;;;27.20;13.98;;;4.20;99.90;;;;;;5114468;28;20496;-78
2020/12/01 05:15:49;;;;;;;24.13;13.38;;;4.10;99.90;;;;;;5112542;28;20036;-79
2020/12/01 05:18:18;;;;;;;16.55;10.20;;;4.20;99.90;;;;;;5113868;28;20071;-79
2020/12/01 05:20:47;;;;;;;25.30;12.90;;;4.10;99.90;;;;;;5113169;28;20039;-79
2020/12/01 05:23:15;;;;;;;21.38;11.70;;;4.00;99.90;;;;;;5112493;28;20043;-79
2020/12/01 05:25:41;;;;;;;24.05;11.90;;;;;;;;;;5114079;28;20044;-79
2020/12/01 05:28:10;;;;;;;26.48;14.85;;;4.20;99.90;;;;;;5113845;28;20089;-79
2020/12/01 05:30:37;;;;;;;19.77;10.88;;;4.10;99.90;;;;;;5112198;28;20036;-79
2020/12/01 05:33:17;;;;;;;24.63;13.52;;;4.10;99.90;;;;;;5112738;28;20031;-79
2020/12/01 05:35:43;;;;;;;;;;;4.10;99.90;;;;;;5114103;28;20416;-79
2020/12/01 05:38:17;;;;;;;23.17;11.95;;;4.10;99.90;;;;;;5112601;28;19926;-79
2020/12/01 05:40:48;;;;;;;25.05;12.93;;;4.10;99.90;;;;;;5113435;28;20585;-79
2020/12/01 05:43:20;;;;;;;;;;;4.10;99.90;;;;;;5113096;28;20481;-79
2020/12/01 05:45:46;;;;;;;23.17;13.00;;;4.10;99.90;;;;;;5113759;28;19962;-79
2020/12/01 05:48:40;;;;;;;19.67;11.35;;;4.20;99.90;;;;;;5112319;28;20444;-79
2020/12/01 05:51:12;;;;;;;26.90;12.38;;;4.20;99.90;;;;;;5113501;28;20051;-79
2020/12/01 05:53:38;;;;;;;22.98;12.82;;;4.10;99.90;;;;;;5112399;28;20122;-79
2020/12/01 05:56:14;;;;;;;24.13;12.93;;;4.20;99.90;;;;;;5112362;28;20078;-79
2020/12/01 05:58:42;;;;;;;28.08;15.10;;;4.10;99.90;;;;;;5112867;28;20093;-79
2020/12/01 06:01:08;;;;;;;27.73;14.93;;;4.10;99.90;;;;;;5117616;28;20035;-79
2020/12/01 06:03:50;;;;;;;22.45;11.70;;;4.20;99.90;;;;;;5116158;27;20035;-79
2020/12/01 06:06:17;;;;;;;22.48;10.45;;;4.20;99.90;;;;;;5117414;28;20112;-79
2020/12/01 06:08:48;;;;;;;22.17;12.35;;;4.20;99.90;;;;;;5117003;28;20036;-78
2020/12/01 06:11:37;;;;;;;22.67;11.50;;;4.20;99.90;;;;;;5116438;28;20138;-78
2020/12/01 06:14:12;;;;;;;27.40;14.57;;;4.20;99.90;;;;;;5117429;28;20046;-78
2020/12/01 06:16:44;;;;;;;24.63;13.23;;;4.20;99.90;;;;;;5117443;28;20450;-78
2020/12/01 06:19:23;;;;;;;23.63;12.73;;;4.30;99.90;;;;;;5115850;28;20042;-78
2020/12/01 06:22:22;;;;;;;26.70;13.23;;;4.20;99.90;;;;;;5115906;28;20051;-78
2020/12/01 06:25:15;;;;;;;24.27;11.13;;;4.20;99.90;;;;;;5117325;28;20039;-78
2020/12/01 06:28:08;;;;;;;17.88;8.73;;;4.20;99.90;;;;;;5117074;28;20050;-78
2020/12/01 06:30:59;;;;;;;15.45;7.82;;;4.00;99.90;;;;;;5096239;28;20044;-78
2020/12/01 06:34:09;;;;;;;24.67;11.75;;;4.20;99.90;;;;;;5096649;28;20043;-79
2020/12/01 06:37:11;;;;;;;26.60;12.88;;;4.30;99.90;;;;;;5095451;28;20086;-78
2020/12/01 06:39:52;;;;;;;25.33;13.50;;;4.20;99.90;;;;;;5094701;28;20044;-78
2020/12/01 06:42:25;;;;;;;26.90;13.63;;;4.20;99.90;;;;;;5096650;28;20044;-78
2020/12/01 06:44:55;;;;;;;26.98;12.73;;;4.20;99.90;;;;;;5095074;28;20044;-78
2020/12/01 06:47:29;;;;;;;25.80;13.95;;;4.30;99.90;;;;;;5096680;28;20063;-78
2020/12/01 06:49:59;;;;;;;22.50;12.82;;;4.30;99.90;;;;;;5099580;28;20051;-78
2020/12/01 06:52:26;;;;;;;29.15;13.63;;;4.30;99.90;;;;;;5116361;28;20427;-78
2020/12/01 06:54:53;;;;;;;28.52;14.23;;;4.30;99.90;;;;;;5116905;28;20122;-78
2020/12/01 06:57:26;;;;;;;24.33;12.32;;;4.30;99.90;;;;;;5115408;28;20040;-78
2020/12/01 06:59:52;;;;;;;22.88;11.15;;;4.30;99.90;;;;;;5114823;28;20036;-77
2020/12/01 07:02:25;;;;;;;30.10;14.73;;;4.30;99.90;;;;;;5116337;28;20118;-78
2020/12/01 07:05:06;;;;;;;32.22;15.75;;;4.30;99.90;;;;;;5116836;28;20480;-78
2020/12/01 07:07:34;;;;;;;32.58;15.70;;;4.30;99.90;;;;;;5115356;28;20135;-78
2020/12/01 07:10:12;;;;;;;32.65;14.73;;;4.30;99.90;;;;;;5115175;28;20093;-78
2020/12/01 07:12:46;;;;;;;30.00;14.82;;;4.30;99.90;;;;;;5116522;28;20036;-78
2020/12/01 07:15:14;;;;;;;35.90;16.10;;;4.30;99.90;;;;;;5115084;28;20093;-78
2020/12/01 07:17:51;;;;;;;34.22;13.63;;;4.40;99.90;;;;;;5115115;28;20346;-78
2020/12/01 07:20:30;;;;;;;36.08;16.92;;;4.40;99.90;;;;;;5114214;28;20051;-78
2020/12/01 07:23:06;;;;;;;35.88;17.60;;;4.30;99.90;;;;;;5116225;28;20035;-78
2020/12/01 07:25:37;;;;;;;34.92;15.73;;;4.30;99.90;;;;;;5116267;28;20100;-78
2020/12/01 07:28:18;;;;;;;24.48;11.45;;;4.40;99.90;;;;;;5115266;28;20043;-78
2020/12/01 07:31:18;;;;;;;38.83;16.38;;;4.40;99.90;;;;;;5114204;28;20043;-77
2020/12/01 07:33:51;;;;;;;37.47;17.08;;;4.40;99.90;;;;;;5116356;28;20113;-78
2020/12/01 07:36:27;;;;;;;34.50;16.13;;;4.40;99.90;;;;;;5116022;28;20027;-78
2020/12/01 07:39:10;;;;;;;34.58;16.33;;;4.50;99.90;;;;;;5115498;28;20048;-78
2020/12/01 07:41:45;;;;;;;33.28;16.25;;;4.50;99.90;;;;;;5116881;27;20528;-78
2020/12/01 07:44:14;;;;;;;36.17;16.45;;;4.60;99.90;;;;;;5115573;28;20043;-78
2020/12/01 07:47:02;;;;;;;31.63;15.70;;;4.60;99.90;;;;;;5116938;28;20031;-78
2020/12/01 07:49:28;;;;;;;37.50;15.68;;;4.60;99.90;;;;;;5115143;28;20043;-78
2020/12/01 07:52:01;;;;;;;28.45;12.60;;;4.50;99.90;;;;;;5115636;27;20058;-78
2020/12/01 07:54:29;;;;;;;35.88;16.27;;;4.40;99.90;;;;;;5114336;28;20031;-78
2020/12/01 07:56:54;;;;;;;37.55;17.52;;;4.30;99.90;;;;;;5115617;28;20118;-77
2020/12/01 07:59:21;;;;;;;34.28;16.23;;;4.20;99.90;;;;;;5113687;28;20047;-77
2020/12/01 08:01:46;;;;;;;35.50;16.30;;;4.20;99.90;;;;;;5114316;28;20066;-77
2020/12/01 08:04:15;;;;;;;35.20;15.32;;;4.30;99.90;;;;;;5114038;28;20552;-77
2020/12/01 08:06:41;;;;;;;39.65;18.75;;;4.30;99.90;;;;;;5113795;28;20047;-77
2020/12/01 08:09:12;;;;;;;37.55;17.73;;;4.30;99.90;;;;;;5114855;28;20485;-77
2020/12/01 08:11:41;;;;;;;42.35;18.20;;;4.30;99.90;;;;;;5115517;28;20048;-77
2020/12/01 08:14:09;;;;;;;35.30;16.80;;;4.40;99.90;;;;;;5113991;28;20810;-78
2020/12/01 08:16:35;;;;;;;40.42;18.17;;;4.30;99.90;;;;;;5115201;28;20036;-78
2020/12/01 08:19:02;;;;;;;38.10;18.70;;;4.40;99.90;;;;;;5114204;28;20039;-78
2020/12/01 08:21:33;;;;;;;38.35;18.00;;;4.40;99.90;;;;;;5113315;28;20038;-78
2020/12/01 08:24:00;;;;;;;;;;;4.40;99.90;;;;;;5114755;28;20061;-79
2020/12/01 08:26:29;;;;;;;35.53;15.50;;;4.50;99.90;;;;;;5113489;28;19938;-78
2020/12/01 08:28:59;;;;;;;42.63;18.38;;;4.40;99.90;;;;;;5114110;28;20084;-78
2020/12/01 08:31:34;;;;;;;41.10;17.98;;;4.50;99.90;;;;;;5114727;28;20040;-78
2020/12/01 08:34:09;;;;;;;43.50;18.63;;;4.50;99.90;;;;;;5112984;28;20636;-79
2020/12/01 08:37:01;;;;;;;33.45;15.73;;;4.50;99.90;;;;;;5114827;28;20047;-78
2020/12/01 08:39:45;;;;;;;35.55;16.73;;;4.60;99.90;;;;;;5114645;28;20060;-80
2020/12/01 08:42:21;;;;;;;45.25;20.77;;;4.60;99.90;;;;;;5113426;28;20055;-80
2020/12/01 08:45:00;;;;;;;37.97;16.73;;;4.50;99.90;;;;;;5113545;28;20039;-80
2020/12/01 08:47:26;;;;;;;48.33;20.15;;;;;;;;;;5114732;28;20173;-80
2020/12/01 08:49:53;;;;;;;35.90;16.38;;;4.40;99.90;;;;;;5112287;28;20134;-79
2020/12/01 08:52:39;;;;;;;37.65;16.45;;;4.50;99.90;;;;;;5113352;28;20039;-80
2020/12/01 08:55:22;;;;;;;37.17;17.98;;;4.50;99.90;;;;;;5113313;28;20036;-80
2020/12/01 08:57:54;;;;;;;24.52;11.50;;;4.40;99.90;;;;;;5113064;28;20096;-79
2020/12/01 09:00:23;;;;;;;30.75;13.35;;;4.50;99.90;;;;;;5113761;28;20458;-80
2020/12/01 09:02:50;;;;;;;31.88;15.70;;;4.50;99.90;;;;;;5111867;28;20498;-78
2020/12/01 09:05:26;;;;;;;39.03;17.15;;;4.40;99.90;;;;;;5112965;28;20043;-80
2020/12/01 09:08:08;;;;;;;37.22;16.48;;;4.40;99.90;;;;;;5112933;28;20054;-79
2020/12/01 09:10:35;;;;;;;34.13;15.35;;;4.40;99.90;;;;;;5112341;28;20400;-79
2020/12/01 09:13:10;;;;;;;30.38;13.80;;;4.50;99.90;;;;;;5112756;28;20027;-80
2020/12/01 09:15:54;;;;;;;25.95;11.15;;;4.50;99.90;;;;;;5112904;28;20035;-79
2020/12/01 09:23:58;;;;;;;23.80;11.70;;;4.50;99.90;;;;;;5113995;28;20189;-79
2020/12/01 09:26:24;;;;;;;26.77;12.05;;;4.50;99.90;;;;;;5111585;28;20047;-79
2020/12/01 09:28:53;;;;;;;28.42;14.05;;;4.50;99.90;;;;;;5112205;28;20046;-79
2020/12/01 09:31:21;;;;;;;27.83;12.45;;;4.40;99.90;;;;;;5112250;28;20042;-79
2020/12/01 09:33:47;;;;;;;27.42;12.05;;;;;;;;;;5112133;28;20046;-79
2020/12/01 09:36:16;;;;;;;28.80;13.85;;;4.50;99.90;;;;;;5113449;28;20028;-79
2020/12/01 09:38:42;;;;;;;38.10;15.10;;;4.50;99.90;;;;;;5112162;28;20131;-79
2020/12/01 09:41:12;;;;;;;27.92;13.45;;;4.40;99.90;;;;;;5112474;28;20372;-79
2020/12/01 09:43:44;;;;;;;33.42;16.10;;;;;;;;;;5112498;28;20042;-79
2020/12/01 09:46:12;;;;;;;21.92;10.23;;;4.50;99.90;;;;;;5112282;28;20043;-79
2020/12/01 09:48:41;;;;;;;25.60;12.60;;;4.50;99.90;;;;;;5113147;28;20035;-79
2020/12/01 09:51:07;;;;;;;27.97;12.40;;;;;;;;;;5112416;28;20036;-79
2020/12/01 09:53:51;;;;;;;30.95;14.68;;;4.60;99.90;;;;;;5113665;28;20269;-79
2020/12/01 09:56:44;;;;;;;31.77;14.15;;;4.50;99.90;;;;;;5113657;28;20503;-79
2020/12/01 09:59:34;;;;;;;28.58;13.32;;;4.50;99.90;;;;;;5112909;28;20058;-78
2020/12/01 10:07:40;;;;;;;24.58;11.10;;;4.60;99.90;;;;;;5113506;28;20078;-79
2020/12/01 10:10:14;;;;;;;23.55;11.65;;;4.50;99.90;;;;;;5111862;28;20042;-79
2020/12/01 10:12:46;;;;;;;27.10;12.23;;;4.50;99.90;;;;;;5113557;28;20042;-79
2020/12/01 10:18:28;;;;;;;29.90;14.35;;;4.50;99.90;;;;;;5113296;28;20050;-79
2020/12/01 10:26:47;;;;;;;31.08;12.40;;;4.50;99.90;;;;;;5113282;28;20056;-79
2020/12/01 10:36:56;;;;;;;22.55;9.93;;;4.60;99.90;;;;;;5113157;28;20118;-79
2020/12/01 10:39:23;;;;;;;19.25;9.73;;;4.60;99.90;;;;;;5111279;28;20040;-79
2020/12/01 10:41:50;;;;;;;20.73;9.63;;;4.70;99.90;;;;;;5112190;28;20477;-79
2020/12/01 10:44:16;;;;;;;33.35;16.25;;;4.60;99.90;;;;;;5111904;28;20046;-79
2020/12/01 10:46:46;;;;;;;15.82;6.43;;;4.60;99.90;;;;;;5114650;28;20036;-79
2020/12/01 10:49:12;;;;;;;18.33;9.15;;;4.70;99.90;;;;;;5115152;28;20501;-79
2020/12/01 10:51:38;;;;;;;26.27;12.13;;;;;;;;;;5116546;28;20042;-79
2020/12/01 10:54:04;;;;;;;28.23;12.32;;;4.70;99.90;;;;;;5116692;28;20365;-79
2020/12/01 10:56:29;;;;;;;31.92;14.60;;;4.80;99.90;;;;;;5116498;28;20051;-80
2020/12/01 10:58:56;;;;;;;30.42;13.80;;;4.70;99.90;;;;;;5116096;28;20036;-80
2020/12/01 11:01:21;;;;;;;31.42;14.85;;;4.80;99.90;;;;;;5116087;28;20044;-79
2020/12/01 11:03:47;;;;;;;21.35;10.10;;;4.90;99.90;;;;;;5116503;28;20051;-79
2020/12/01 11:06:13;;;;;;;33.00;15.85;;;4.90;99.90;;;;;;5116319;28;20040;-79
2020/12/01 11:08:38;;;;;;;32.15;14.25;;;5.00;99.90;;;;;;5115773;28;20106;-79
2020/12/01 11:11:04;;;;;;;32.92;14.38;;;5.00;99.90;;;;;;5115088;28;20032;-79
2020/12/01 11:13:29;;;;;;;32.78;14.13;;;5.00;99.90;;;;;;5116262;28;20397;-79
2020/12/01 11:15:56;;;;;;;35.80;14.82;;;5.00;99.90;;;;;;5116760;28;20031;-79
2020/12/01 11:18:22;;;;;;;36.95;16.77;;;;;;;;;;5118964;28;20435;-79
2020/12/01 11:20:47;;;;;;;36.80;15.57;;;5.20;99.90;;;;;;5119199;28;20096;-80
2020/12/01 11:23:13;;;;;;;36.38;15.98;;;5.10;99.90;;;;;;5117500;28;20040;-79
2020/12/01 11:25:39;;;;;;;38.05;15.50;;;5.20;99.90;;;;;;5118428;28;20039;-79
2020/12/01 11:28:05;;;;;;;37.45;15.88;;;;;;;;;;5117464;28;20136;-79
2020/12/01 11:30:30;;;;;;;36.85;15.38;;;5.20;99.90;;;;;;5116072;28;20043;-79
2020/12/01 11:32:57;;;;;;;34.63;16.02;;;5.20;99.90;;;;;;5116199;28;20042;-79
2020/12/01 11:35:23;;;;;;;37.72;16.17;;;5.20;99.90;;;;;;5117734;28;20044;-79
2020/12/01 11:37:49;;;;;;;38.88;16.80;;;5.50;99.90;;;;;;5117667;28;20127;-80
2020/12/01 11:40:18;;;;;;;33.40;14.30;;;5.40;99.90;;;;;;5116602;28;20489;-79
2020/12/01 11:42:43;;;;;;;36.97;15.45;;;5.50;99.90;;;;;;5116993;28;20085;-79
2020/12/01 11:45:10;;;;;;;36.83;16.40;;;5.50;99.90;;;;;;5115648;28;20031;-78
2020/12/01 11:47:36;;;;;;;38.50;16.77;;;5.40;99.90;;;;;;5117292;28;20043;-79
2020/12/01 11:50:03;;;;;;;34.75;15.40;;;5.40;99.90;;;;;;5117652;28;20082;-79
2020/12/01 11:52:28;;;;;;;35.17;15.95;;;5.50;99.90;;;;;;5118004;28;20615;-79
2020/12/01 11:54:57;;;;;;;33.05;15.63;;;5.50;99.90;;;;;;5118128;28;20039;-79
2020/12/01 11:57:23;;;;;;;34.03;14.07;;;5.60;99.90;;;;;;5116596;28;20059;-79
2020/12/01 11:59:48;;;;;;;40.53;16.35;;;5.70;99.90;;;;;;5116200;28;20104;-79
2020/12/01 12:02:14;;;;;;;37.15;15.60;;;5.70;99.90;;;;;;5117079;28;20046;-80
2020/12/01 12:04:40;;;;;;;33.53;15.30;;;5.70;99.90;;;;;;5112645;28;20404;-79
2020/12/01 12:07:06;;;;;;;31.23;15.52;;;5.80;99.90;;;;;;5113824;28;20049;-79
2020/12/01 12:09:31;;;;;;;30.83;14.80;;;5.80;99.90;;;;;;5112309;28;20040;-78
2020/12/01 12:11:57;;;;;;;31.25;15.18;;;5.80;99.90;;;;;;5114517;28;20457;-77
2020/12/01 12:14:23;;;;;;;30.55;14.57;;;5.80;99.90;;;;;;5114858;28;20054;-79
2020/12/01 12:16:48;;;;;;;33.25;14.60;;;5.90;99.90;;;;;;5112510;28;20039;-79
2020/12/01 12:19:14;;;;;;;33.55;15.52;;;5.90;99.90;;;;;;5113665;28;20047;-78
2020/12/01 12:21:39;;;;;;;26.55;14.10;;;5.80;99.90;;;;;;5114015;28;20086;-80
2020/12/01 12:24:06;;;;;;;25.05;12.77;;;5.90;99.90;;;;;;5111899;28;20039;-78
2020/12/01 12:26:31;;;;;;;30.17;13.95;;;5.80;99.90;;;;;;5113934;28;20043;-78
2020/12/01 12:28:58;;;;;;;28.48;13.00;;;;;;;;;;5112013;28;20042;-80
2020/12/01 12:31:23;;;;;;;24.55;12.48;;;5.80;99.90;;;;;;5111152;28;20105;-78
2020/12/01 12:33:49;;;;;;;26.63;13.43;;;5.80;99.90;;;;;;5110796;28;20032;-78
2020/12/01 12:36:15;;;;;;;26.52;12.48;;;5.70;99.90;;;;;;5109903;28;20066;-78
2020/12/01 12:38:41;;;;;;;26.88;13.57;;;5.60;99.90;;;;;;5109044;28;20044;-79
2020/12/01 12:41:08;;;;;;;25.42;12.48;;;5.70;99.90;;;;;;5109386;28;20046;-78
2020/12/01 12:43:33;;;;;;;27.35;12.32;;;5.70;99.90;;;;;;5110752;28;20039;-78
2020/12/01 12:45:59;;;;;;;25.88;11.85;;;5.80;99.90;;;;;;5112005;28;20423;-78
2020/12/01 12:48:28;;;;;;;26.23;13.05;;;5.80;99.90;;;;;;5110748;28;20039;-78
2020/12/01 12:50:54;;;;;;;23.52;11.82;;;5.80;99.90;;;;;;5111141;28;20047;-78
2020/12/01 12:53:20;;;;;;;22.98;11.65;;;5.70;99.90;;;;;;5111508;28;20050;-78
2020/12/01 12:55:46;;;;;;;23.35;11.18;;;5.80;99.90;;;;;;5110855;28;20331;-78
2020/12/01 12:58:13;;;;;;;24.30;11.27;;;5.60;99.90;;;;;;5110432;28;20437;-78
2020/12/01 13:00:38;;;;;;;26.13;11.43;;;5.70;99.90;;;;;;5108980;28;20050;-78
2020/12/01 13:03:04;;;;;;;19.70;10.77;;;5.60;99.90;;;;;;5110720;28;20045;-78
2020/12/01 13:05:30;;;;;;;23.70;10.43;;;5.70;99.90;;;;;;5109413;28;20509;-79
2020/12/01 13:07:56;;;;;;;19.98;10.23;;;5.70;99.90;;;;;;5110630;28;20036;-78
2020/12/01 13:10:22;;;;;;;17.05;9.30;;;5.80;99.90;;;;;;5110364;28;20059;-79
2020/12/01 13:12:49;;;;;;;15.93;8.88;;;5.70;99.90;;;;;;5110266;28;20477;-79
2020/12/01 13:15:16;;;;;;;19.85;9.38;;;5.70;99.90;;;;;;5110377;28;20067;-80
2020/12/01 13:17:44;;;;;;;18.35;9.20;;;5.80;99.90;;;;;;5108064;28;20051;-80
2020/12/01 13:20:14;;;;;;;17.10;8.90;;;5.80;99.90;;;;;;5109939;28;20059;-80
2020/12/01 13:22:40;;;;;;;;;;;5.80;99.90;;;;;;5110446;28;20051;-79